createdAt,value
2022-11-05T00:03:00.350Z,98285.20
2022-11-05T00:06:16.504Z,98285.40
2022-11-05T00:09:32.774Z,98280.40
2022-11-05T00:12:47.901Z,98279.80
2022-11-05T00:16:03.192Z,98288.60
2022-11-05T00:19:07.892Z,98294.00
2022-11-05T00:22:23.074Z,98301.60
2022-11-05T00:25:22.077Z,98314.00
2022-11-05T00:28:19.721Z,98314.20
2022-11-05T00:31:17.365Z,98316.40
2022-11-05T00:34:15.052Z,98326.00
2022-11-05T00:37:13.946Z,98329.20
2022-11-05T00:40:11.452Z,98337.80
2022-11-05T00:43:26.787Z,98340.40
2022-11-05T00:46:24.734Z,98345.00
2022-11-05T00:49:31.174Z,98356.20
2022-11-05T00:52:46.299Z,98368.00
2022-11-05T00:55:44.115Z,98378.40
2022-11-05T00:58:41.571Z,98360.60
2022-11-05T01:01:39.247Z,98362.20
2022-11-05T01:04:36.748Z,98372.00
2022-11-05T01:07:34.226Z,98359.20
2022-11-05T01:10:31.672Z,98369.20
2022-11-05T01:13:29.144Z,98370.20
2022-11-05T01:16:26.598Z,98368.00
2022-11-05T01:19:24.024Z,98379.00
2022-11-05T01:22:21.485Z,98410.20
2022-11-05T01:25:18.943Z,98417.00
2022-11-05T01:28:16.487Z,98414.40
2022-11-05T01:31:13.973Z,98383.20
2022-11-05T01:34:11.443Z,98386.60
2022-11-05T01:37:08.874Z,98369.60
2022-11-05T01:40:06.501Z,98374.00
2022-11-05T01:43:04.051Z,98374.00
2022-11-05T01:46:01.488Z,98368.60
2022-11-05T01:49:03.144Z,98360.60
2022-11-05T01:52:01.148Z,98375.00
2022-11-05T01:54:58.615Z,98393.80
2022-11-05T01:57:56.045Z,98404.20
2022-11-05T02:00:53.508Z,98410.40
2022-11-05T02:03:50.980Z,98395.80
2022-11-05T02:06:48.444Z,98402.40
2022-11-05T02:09:45.895Z,98394.80
2022-11-05T02:12:43.343Z,98394.20
2022-11-05T02:15:40.793Z,98403.60
2022-11-05T02:18:38.683Z,98410.20
2022-11-05T02:21:36.114Z,98398.20
2022-11-05T02:24:33.578Z,98400.20
2022-11-05T02:27:31.049Z,98399.00
2022-11-05T02:30:28.522Z,98391.00
2022-11-05T02:33:25.973Z,98387.40
2022-11-05T02:36:23.426Z,98395.40
2022-11-05T02:39:20.930Z,98401.80
2022-11-05T02:42:18.463Z,98402.00
2022-11-05T02:45:15.938Z,98397.60
2022-11-05T02:48:13.371Z,98400.80
2022-11-05T02:51:10.817Z,98397.40
2022-11-05T02:54:08.272Z,98399.40
2022-11-05T02:57:05.730Z,98396.00
2022-11-05T03:00:03.588Z,98391.00
2022-11-05T03:03:01.107Z,98394.00
2022-11-05T03:05:58.635Z,98387.80
2022-11-05T03:08:56.114Z,98387.60
2022-11-05T03:11:53.563Z,98388.00
2022-11-05T03:14:51.196Z,98398.00
2022-11-05T03:17:48.675Z,98395.60
2022-11-05T03:20:46.237Z,98402.20
2022-11-05T03:23:43.709Z,98396.80
2022-11-05T03:26:41.480Z,98399.60
2022-11-05T03:29:38.920Z,98401.80
2022-11-05T03:32:36.396Z,98400.20
2022-11-05T03:35:33.828Z,98410.80
2022-11-05T03:38:31.273Z,98406.80
2022-11-05T03:41:28.725Z,98410.40
2022-11-05T03:44:26.199Z,98418.60
2022-11-05T03:47:23.662Z,98420.80
2022-11-05T03:50:21.119Z,98421.40
2022-11-05T03:53:18.561Z,98417.80
2022-11-05T03:56:15.982Z,98418.00
2022-11-05T03:59:13.440Z,98411.40
2022-11-05T04:02:11.038Z,98403.40
2022-11-05T04:05:08.619Z,98393.60
2022-11-05T04:08:23.867Z,98400.80
2022-11-05T04:11:39.197Z,98389.00
2022-11-05T04:14:36.662Z,98389.20
2022-11-05T04:17:34.122Z,98393.20
2022-11-05T04:20:49.347Z,98386.80
2022-11-05T04:24:04.353Z,98388.00
2022-11-05T04:27:01.814Z,98389.00
2022-11-05T04:30:16.972Z,98403.40
2022-11-05T04:33:14.809Z,98415.20
2022-11-05T04:36:12.617Z,98417.20
2022-11-05T04:39:10.075Z,98432.40
2022-11-05T04:42:07.541Z,98440.40
2022-11-05T04:45:05.060Z,98445.60
2022-11-05T04:48:02.531Z,98450.80
2022-11-05T04:51:00.028Z,98458.00
2022-11-05T04:53:57.503Z,98473.40
2022-11-05T04:56:54.954Z,98480.20
2022-11-05T04:59:54.036Z,98485.80
2022-11-05T05:02:51.789Z,98496.20
2022-11-05T05:05:53.715Z,98502.60
2022-11-05T05:08:51.536Z,98496.40
2022-11-05T05:11:49.049Z,98481.40
2022-11-05T05:14:46.500Z,98475.40
2022-11-05T05:17:43.936Z,98479.60
2022-11-05T05:20:59.441Z,98479.20
2022-11-05T05:23:56.892Z,98480.80
2022-11-05T05:26:54.336Z,98483.80
2022-11-05T05:29:51.831Z,98481.00
2022-11-05T05:32:49.309Z,98488.80
2022-11-05T05:35:46.757Z,98496.40
2022-11-05T05:38:44.263Z,98507.60
2022-11-05T05:41:41.720Z,98515.80
2022-11-05T05:44:39.168Z,98522.40
2022-11-05T05:47:36.640Z,98524.20
2022-11-05T05:50:34.100Z,98526.20
2022-11-05T05:53:31.554Z,98532.00
2022-11-05T05:56:29.004Z,98541.20
2022-11-05T05:59:26.458Z,98538.60
2022-11-05T06:02:24.053Z,98543.20
2022-11-05T06:05:21.648Z,98539.80
2022-11-05T06:08:19.097Z,98545.80
2022-11-05T06:11:16.547Z,98548.20
2022-11-05T06:14:14.023Z,98540.60
2022-11-05T06:17:11.485Z,98544.80
2022-11-05T06:20:09.630Z,98545.80
2022-11-05T06:23:07.105Z,98552.60
2022-11-05T06:26:04.549Z,98561.00
2022-11-05T06:29:02.009Z,98563.80
2022-11-05T06:31:59.569Z,98567.80
2022-11-05T06:34:57.037Z,98568.20
2022-11-05T06:37:54.496Z,98581.60
2022-11-05T06:40:51.948Z,98591.20
2022-11-05T06:43:49.423Z,98596.00
2022-11-05T06:46:48.652Z,98595.40
2022-11-05T06:49:46.407Z,98592.00
2022-11-05T06:52:43.854Z,98596.80
2022-11-05T06:55:41.340Z,98601.80
2022-11-05T06:58:38.802Z,98606.40
2022-11-05T07:01:37.588Z,98602.20
2022-11-05T07:04:35.182Z,98606.20
2022-11-05T07:07:32.639Z,98606.00
2022-11-05T07:10:32.491Z,98611.20
2022-11-05T07:13:29.935Z,98621.00
2022-11-05T07:16:27.394Z,98620.20
2022-11-05T07:19:24.863Z,98617.60
2022-11-05T07:22:22.330Z,98627.00
2022-11-05T07:25:20.738Z,98624.80
2022-11-05T07:28:18.187Z,98633.40
2022-11-05T07:31:15.629Z,98624.40
2022-11-05T07:34:13.099Z,98617.00
2022-11-05T07:37:10.537Z,98616.40
2022-11-05T07:40:07.968Z,98622.00
2022-11-05T07:43:05.397Z,98632.00
2022-11-05T07:46:03.646Z,98638.60
2022-11-05T07:49:01.107Z,98641.80
2022-11-05T07:51:58.933Z,98647.80
2022-11-05T07:54:57.254Z,98642.60
2022-11-05T07:57:54.745Z,98642.40
2022-11-05T08:00:52.287Z,98647.80
2022-11-05T08:03:50.045Z,98648.60
2022-11-05T08:06:47.502Z,98648.00
2022-11-05T08:09:45.014Z,98647.80
2022-11-05T08:12:42.472Z,98636.60
2022-11-05T08:15:39.931Z,98640.20
2022-11-05T08:18:37.383Z,98643.00
2022-11-05T08:21:34.850Z,98647.20
2022-11-05T08:24:32.287Z,98644.00
2022-11-05T08:27:29.744Z,98641.60
2022-11-05T08:30:27.199Z,98648.60
2022-11-05T08:33:24.910Z,98646.60
2022-11-05T08:36:22.366Z,98650.00
2022-11-05T08:39:20.028Z,98648.20
2022-11-05T08:42:17.472Z,98649.00
2022-11-05T08:45:14.944Z,98658.60
2022-11-05T08:48:12.442Z,98660.00
2022-11-05T08:51:10.023Z,98657.00
2022-11-05T08:54:07.499Z,98667.20
2022-11-05T08:57:04.981Z,98680.80
2022-11-05T09:00:02.471Z,98680.40
2022-11-05T09:02:59.926Z,98678.00
2022-11-05T09:05:57.386Z,98686.20
2022-11-05T09:08:54.832Z,98689.00
2022-11-05T09:15:10.426Z,98685.20
2022-11-05T09:18:07.909Z,98688.60
2022-11-05T09:21:05.395Z,98690.60
2022-11-05T09:24:02.863Z,98698.80
2022-11-05T09:27:00.315Z,98704.40
2022-11-05T09:29:57.817Z,98706.40
2022-11-05T09:32:55.269Z,98705.60
2022-11-05T09:35:52.919Z,98709.00
2022-11-05T09:38:50.381Z,98699.40
2022-11-05T09:41:48.884Z,98709.20
2022-11-05T09:44:47.779Z,98706.80
2022-11-05T09:47:45.232Z,98702.80
2022-11-05T09:50:42.671Z,98702.60
2022-11-05T09:53:40.219Z,98705.80
2022-11-05T09:56:38.078Z,98709.40
2022-11-05T09:59:36.287Z,98717.40
2022-11-05T10:02:33.905Z,98722.80
2022-11-05T10:05:31.549Z,98725.60
2022-11-05T10:08:29.507Z,98730.20
2022-11-05T10:11:26.970Z,98725.80
2022-11-05T10:14:24.571Z,98730.60
2022-11-05T10:17:24.494Z,98739.00
2022-11-05T10:20:23.522Z,98735.60
2022-11-05T10:23:20.991Z,98731.80
2022-11-05T10:26:18.445Z,98736.20
2022-11-05T10:29:15.941Z,98734.00
2022-11-05T10:32:13.392Z,98744.80
2022-11-05T10:35:10.839Z,98744.60
2022-11-05T10:38:08.308Z,98745.60
2022-11-05T10:41:05.748Z,98746.20
2022-11-05T10:44:03.225Z,98759.20
2022-11-05T10:47:00.688Z,98764.60
2022-11-05T10:49:58.709Z,98770.20
2022-11-05T10:52:56.161Z,98779.40
2022-11-05T10:55:54.341Z,98768.60
2022-11-05T10:58:51.796Z,98764.80
2022-11-05T11:01:49.332Z,98764.00
2022-11-05T11:04:46.933Z,98760.20
2022-11-05T11:07:44.378Z,98766.00
2022-11-05T11:10:41.863Z,98765.80
2022-11-05T11:13:39.417Z,98766.40
2022-11-05T11:16:37.245Z,98758.40
2022-11-05T11:19:34.727Z,98750.00
2022-11-05T11:22:32.183Z,98746.20
2022-11-05T11:25:29.655Z,98747.00
2022-11-05T11:28:27.558Z,98754.60
2022-11-05T11:31:25.067Z,98762.60
2022-11-05T11:34:22.529Z,98765.20
2022-11-05T11:37:20.098Z,98763.20
2022-11-05T11:40:17.561Z,98766.60
2022-11-05T11:43:15.026Z,98769.80
2022-11-05T11:46:14.997Z,98774.80
2022-11-05T11:49:13.354Z,98781.20
2022-11-05T11:52:10.780Z,98777.40
2022-11-05T11:55:08.298Z,98779.40
2022-11-05T11:58:05.731Z,98780.40
2022-11-05T12:01:03.512Z,98781.60
2022-11-05T12:04:01.103Z,98787.80
2022-11-05T12:06:58.566Z,98782.00
2022-11-05T12:09:56.071Z,98791.20
2022-11-05T12:12:53.537Z,98788.00
2022-11-05T12:15:51.013Z,98792.60
2022-11-05T12:18:48.449Z,98795.00
2022-11-05T12:21:53.065Z,98791.00
2022-11-05T12:24:51.095Z,98794.60
2022-11-05T12:27:48.538Z,98804.00
2022-11-05T12:30:46.153Z,98798.40
2022-11-05T12:33:43.624Z,98799.40
2022-11-05T12:36:41.104Z,98800.60
2022-11-05T12:39:38.615Z,98808.60
2022-11-05T12:42:36.089Z,98808.20
2022-11-05T12:45:33.533Z,98803.60
2022-11-05T12:48:36.734Z,98808.00
2022-11-05T12:51:34.720Z,98810.80
2022-11-05T12:54:32.173Z,98814.80
2022-11-05T12:57:29.629Z,98807.00
2022-11-05T13:00:27.093Z,98809.20
2022-11-05T13:03:24.783Z,98807.20
2022-11-05T13:06:22.250Z,98809.40
2022-11-05T13:09:19.844Z,98817.20
2022-11-05T13:12:17.408Z,98819.00
2022-11-05T13:15:14.995Z,98823.40
2022-11-05T13:18:12.451Z,98822.80
2022-11-05T13:21:10.291Z,98826.40
2022-11-05T13:24:07.767Z,98823.80
2022-11-05T13:27:05.479Z,98823.00
2022-11-05T13:30:03.740Z,98824.00
2022-11-05T13:33:01.665Z,98825.60
2022-11-05T13:36:13.028Z,98819.20
2022-11-05T13:39:10.488Z,98828.40
2022-11-05T13:42:07.963Z,98828.60
2022-11-05T13:45:05.405Z,98837.20
2022-11-05T13:48:02.862Z,98841.40
2022-11-05T13:51:00.676Z,98842.60
2022-11-05T13:53:58.481Z,98847.40
2022-11-05T13:56:56.916Z,98849.80
2022-11-05T13:59:54.406Z,98851.60
2022-11-05T14:02:51.852Z,98849.00
2022-11-05T14:05:49.304Z,98857.00
2022-11-05T14:08:46.759Z,98867.60
2022-11-05T14:11:44.624Z,98864.00
2022-11-05T14:14:42.134Z,98873.60
2022-11-05T14:17:39.598Z,98880.80
2022-11-05T14:20:37.454Z,98885.00
2022-11-05T14:23:35.270Z,98891.00
2022-11-05T14:26:33.616Z,98889.80
2022-11-05T14:29:31.125Z,98887.80
2022-11-05T14:32:29.000Z,98891.60
2022-11-05T14:35:26.864Z,98886.80
2022-11-05T14:38:24.397Z,98885.20
2022-11-05T14:41:21.877Z,98886.80
2022-11-05T14:44:19.351Z,98892.20
2022-11-05T14:47:19.726Z,98895.80
2022-11-05T14:50:19.100Z,98895.00
2022-11-05T14:53:16.587Z,98896.80
2022-11-05T14:56:14.616Z,98897.80
2022-11-05T14:59:13.817Z,98894.20
2022-11-05T15:02:11.407Z,98894.00
2022-11-05T15:05:10.019Z,98898.60
2022-11-05T15:08:07.630Z,98896.60
2022-11-05T15:11:05.566Z,98907.80
2022-11-05T15:14:03.069Z,98917.60
2022-11-05T15:17:01.514Z,98918.60
2022-11-05T15:19:59.083Z,98925.00
2022-11-05T15:22:56.769Z,98931.60
2022-11-05T15:25:54.772Z,98938.20
2022-11-05T15:28:52.836Z,98944.20
2022-11-05T15:31:50.729Z,98947.20
2022-11-05T15:34:48.364Z,98952.40
2022-11-05T15:37:51.738Z,98952.20
2022-11-05T15:40:52.624Z,98952.60
2022-11-05T15:43:51.350Z,98954.20
2022-11-05T15:46:50.776Z,98954.40
2022-11-05T15:49:48.810Z,98951.00
2022-11-05T15:52:46.881Z,98948.60
2022-11-05T15:55:45.691Z,98948.80
2022-11-05T15:58:52.529Z,98948.60
2022-11-05T16:01:51.258Z,98954.00
2022-11-05T16:04:48.882Z,98959.00
2022-11-05T16:07:46.895Z,98965.40
2022-11-05T16:10:46.200Z,98967.40
2022-11-05T16:13:45.516Z,98972.40
2022-11-05T16:16:43.489Z,98975.00
2022-11-05T16:19:41.558Z,98979.60
2022-11-05T16:22:39.530Z,98981.60
2022-11-05T16:25:37.926Z,98988.40
2022-11-05T16:28:37.010Z,98994.20
2022-11-05T16:31:37.335Z,98985.60
2022-11-05T16:34:35.281Z,98988.00
2022-11-05T16:37:33.378Z,98987.40
2022-11-05T16:40:31.281Z,98995.20
2022-11-05T16:43:29.427Z,98996.00
2022-11-05T16:46:27.469Z,99001.20
2022-11-05T16:49:25.266Z,99004.20
2022-11-05T16:52:23.064Z,99006.40
2022-11-05T16:55:21.157Z,99010.40
2022-11-05T16:58:19.978Z,99015.40
2022-11-05T17:01:21.006Z,99017.60
2022-11-05T17:04:19.987Z,99026.20
2022-11-05T17:07:19.051Z,99032.20
2022-11-05T17:10:20.477Z,99034.80
2022-11-05T17:13:23.887Z,99043.00
2022-11-05T17:16:27.388Z,99048.40
2022-11-05T17:19:26.935Z,99053.40
2022-11-05T17:22:28.681Z,99056.00
2022-11-05T17:25:28.739Z,99059.40
2022-11-05T17:28:30.770Z,99064.80
2022-11-05T17:31:31.662Z,99063.60
2022-11-05T17:34:30.861Z,99067.00
2022-11-05T17:37:28.947Z,99074.00
2022-11-05T17:40:29.176Z,99079.20
2022-11-05T17:43:27.716Z,99087.00
2022-11-05T17:46:26.759Z,99091.40
2022-11-05T17:49:24.738Z,99095.80
2022-11-05T17:52:22.979Z,99097.00
2022-11-05T17:55:21.181Z,99107.20
2022-11-05T17:58:19.069Z,99108.40
2022-11-05T18:01:17.659Z,99107.80
2022-11-05T18:04:16.325Z,99103.80
2022-11-05T18:07:15.251Z,99104.20
2022-11-05T18:10:17.998Z,99103.40
2022-11-05T18:13:16.401Z,99101.40
2022-11-05T18:16:14.740Z,99105.40
2022-11-05T18:19:13.157Z,99108.00
2022-11-05T18:22:16.197Z,99107.80
2022-11-05T18:25:15.126Z,99107.00
2022-11-05T18:28:13.809Z,99105.80
2022-11-05T18:31:17.825Z,99111.00
2022-11-05T18:34:16.980Z,99121.40
2022-11-05T18:37:16.323Z,99115.20
2022-11-05T18:40:14.908Z,99119.60
2022-11-05T18:43:13.775Z,99122.00
2022-11-05T18:46:29.285Z,99120.60
2022-11-05T18:49:31.246Z,99124.20
2022-11-05T18:52:33.526Z,99126.60
2022-11-05T18:55:32.027Z,99125.80
2022-11-05T18:58:30.486Z,99134.80
2022-11-05T19:01:28.586Z,99132.60
2022-11-05T19:04:27.361Z,99134.80
2022-11-05T19:07:25.301Z,99135.00
2022-11-05T19:10:23.113Z,99144.20
2022-11-05T19:13:21.164Z,99145.40
2022-11-05T19:16:21.349Z,99153.60
2022-11-05T19:19:19.366Z,99159.20
2022-11-05T19:22:17.699Z,99156.00
2022-11-05T19:25:15.506Z,99155.20
2022-11-05T19:28:13.819Z,99163.40
2022-11-05T19:31:12.884Z,99165.60
2022-11-05T19:34:11.566Z,99169.40
2022-11-05T19:37:10.159Z,99169.80
2022-11-05T19:40:08.632Z,99172.60
2022-11-05T19:43:07.121Z,99175.60
2022-11-05T19:46:07.933Z,99176.60
2022-11-05T19:49:06.541Z,99168.40
2022-11-05T19:52:05.234Z,99171.20
2022-11-05T19:55:09.399Z,99181.20
2022-11-05T19:58:11.207Z,99188.00
2022-11-05T20:01:10.972Z,99188.40
2022-11-05T20:04:09.708Z,99189.00
2022-11-05T20:07:08.476Z,99195.00
2022-11-05T20:10:10.240Z,99194.40
2022-11-05T20:13:08.848Z,99191.20
2022-11-05T20:16:07.122Z,99194.00
2022-11-05T20:19:05.608Z,99194.00
2022-11-05T20:22:05.560Z,99201.40
2022-11-05T20:25:03.729Z,99200.20
2022-11-05T20:28:02.483Z,99210.40
2022-11-05T20:31:01.795Z,99206.20
2022-11-05T20:34:00.681Z,99207.80
2022-11-05T20:36:59.474Z,99215.80
2022-11-05T20:39:57.489Z,99217.00
2022-11-05T20:42:55.672Z,99218.00
2022-11-05T20:45:54.153Z,99214.80
2022-11-05T20:48:52.523Z,99220.20
2022-11-05T20:51:51.073Z,99218.40
2022-11-05T20:54:50.532Z,99221.00
2022-11-05T20:57:48.973Z,99216.20
2022-11-05T21:00:52.150Z,99217.20
2022-11-05T21:03:50.431Z,99221.40
2022-11-05T21:06:48.881Z,99221.20
2022-11-05T21:09:47.286Z,99222.20
2022-11-05T21:12:45.082Z,99221.80
2022-11-05T21:15:45.527Z,99227.20
2022-11-05T21:18:43.973Z,99224.20
2022-11-05T21:21:42.405Z,99228.60
2022-11-05T21:24:42.882Z,99225.20
2022-11-05T21:27:43.809Z,99226.40
2022-11-05T21:30:42.278Z,99223.60
2022-11-05T21:33:40.787Z,99225.40
2022-11-05T21:36:39.091Z,99228.20
2022-11-05T21:39:37.008Z,99234.20
2022-11-05T21:42:34.732Z,99231.00
2022-11-05T21:45:32.653Z,99236.20
2022-11-05T21:48:30.669Z,99225.60
2022-11-05T21:51:45.860Z,99229.20
2022-11-05T21:55:00.897Z,99229.40
2022-11-05T21:58:16.040Z,99226.40
2022-11-05T22:01:13.554Z,99226.20
2022-11-05T22:04:11.802Z,99222.80
2022-11-05T22:07:09.304Z,99232.60
2022-11-05T22:10:07.569Z,99230.60
2022-11-05T22:13:09.379Z,99235.40
2022-11-05T22:16:06.805Z,99233.00
2022-11-05T22:19:04.560Z,99237.20
2022-11-05T22:22:02.018Z,99243.60
2022-11-05T22:24:59.469Z,99239.60
2022-11-05T22:27:56.935Z,99245.20
2022-11-05T22:30:54.416Z,99247.20
2022-11-05T22:33:51.936Z,99240.40
2022-11-05T22:36:49.408Z,99246.80
2022-11-05T22:39:46.916Z,99247.00
2022-11-05T22:42:44.405Z,99246.60
2022-11-05T22:45:43.940Z,99240.40
2022-11-05T22:48:41.412Z,99241.80
2022-11-05T22:51:39.359Z,99244.00
2022-11-05T22:54:39.483Z,99246.80
2022-11-05T22:57:37.121Z,99245.00
2022-11-05T23:00:34.563Z,99249.80
2022-11-05T23:03:32.035Z,99248.20
2022-11-05T23:06:47.347Z,99253.20
2022-11-05T23:10:02.758Z,99252.20
2022-11-05T23:13:00.257Z,99247.60
2022-11-05T23:16:15.715Z,99246.60
2022-11-05T23:19:30.994Z,99249.00
2022-11-05T23:22:51.580Z,99245.40
2022-11-05T23:25:49.037Z,99249.20
2022-11-05T23:28:46.470Z,99244.80
2022-11-05T23:32:01.512Z,99247.00
2022-11-05T23:34:58.978Z,99240.60
2022-11-05T23:38:14.586Z,99236.40
2022-11-05T23:41:30.065Z,99229.20
2022-11-05T23:44:45.449Z,99232.00
2022-11-05T23:48:00.939Z,99237.60
2022-11-05T23:50:58.580Z,99233.80
2022-11-05T23:53:56.035Z,99239.00
2022-11-05T23:56:53.491Z,99238.00
2022-11-05T23:59:51.043Z,99237.60
